sensor_id;sensor_type;location;lat;lon;timestamp;temperature;humidity
7844;DHT22;3967;48.702;9.326;2022-12-11T00:02:04;0.90;99.30
7844;DHT22;3967;48.702;9.326;2022-12-11T00:04:31;0.90;99.50
7844;DHT22;3967;48.702;9.326;2022-12-11T00:06:57;1.00;99.40
7844;DHT22;3967;48.702;9.326;2022-12-11T00:09:24;1.00;99.20
7844;DHT22;3967;48.702;9.326;2022-12-11T00:11:51;1.00;99.10
7844;DHT22;3967;48.702;9.326;2022-12-11T00:14:18;1.10;99.00
7844;DHT22;3967;48.702;9.326;2022-12-11T00:16:47;1.00;99.30
7844;DHT22;3967;48.702;9.326;2022-12-11T00:19:15;1.00;99.10
7844;DHT22;3967;48.702;9.326;2022-12-11T00:21:42;1.00;99.00
7844;DHT22;3967;48.702;9.326;2022-12-11T00:24:09;1.00;98.80
7844;DHT22;3967;48.702;9.326;2022-12-11T00:26:36;1.00;98.70
7844;DHT22;3967;48.702;9.326;2022-12-11T00:29:03;1.00;98.60
7844;DHT22;3967;48.702;9.326;2022-12-11T00:31:30;0.90;98.40
7844;DHT22;3967;48.702;9.326;2022-12-11T00:33:56;1.00;98.40
7844;DHT22;3967;48.702;9.326;2022-12-11T00:36:24;1.00;98.20
7844;DHT22;3967;48.702;9.326;2022-12-11T00:38:52;0.90;98.10
7844;DHT22;3967;48.702;9.326;2022-12-11T00:41:19;0.90;98.30
7844;DHT22;3967;48.702;9.326;2022-12-11T00:43:46;0.90;98.30
7844;DHT22;3967;48.702;9.326;2022-12-11T00:46:13;1.00;98.30
7844;DHT22;3967;48.702;9.326;2022-12-11T00:48:40;0.90;98.40
7844;DHT22;3967;48.702;9.326;2022-12-11T00:51:07;0.90;98.50
7844;DHT22;3967;48.702;9.326;2022-12-11T00:53:34;0.90;98.80
7844;DHT22;3967;48.702;9.326;2022-12-11T00:56:09;1.00;98.60
7844;DHT22;3967;48.702;9.326;2022-12-11T00:58:35;0.90;98.40
7844;DHT22;3967;48.702;9.326;2022-12-11T01:01:11;1.00;98.50
7844;DHT22;3967;48.702;9.326;2022-12-11T01:03:38;1.00;98.40
7844;DHT22;3967;48.702;9.326;2022-12-11T01:06:12;0.90;98.50
7844;DHT22;3967;48.702;9.326;2022-12-11T01:08:40;0.90;98.50
7844;DHT22;3967;48.702;9.326;2022-12-11T01:11:11;0.90;98.70
7844;DHT22;3967;48.702;9.326;2022-12-11T01:13:39;0.90;98.70
7844;DHT22;3967;48.702;9.326;2022-12-11T01:16:10;0.80;98.90
7844;DHT22;3967;48.702;9.326;2022-12-11T01:18:37;0.80;98.90
7844;DHT22;3967;48.702;9.326;2022-12-11T01:21:06;0.80;98.80
7844;DHT22;3967;48.702;9.326;2022-12-11T01:23:33;0.70;99.00
7844;DHT22;3967;48.702;9.326;2022-12-11T01:26:11;0.70;99.20
7844;DHT22;3967;48.702;9.326;2022-12-11T01:28:39;0.70;99.50
7844;DHT22;3967;48.702;9.326;2022-12-11T01:31:10;0.60;99.30
7844;DHT22;3967;48.702;9.326;2022-12-11T01:33:38;0.70;99.50
7844;DHT22;3967;48.702;9.326;2022-12-11T01:36:10;0.70;99.30
7844;DHT22;3967;48.702;9.326;2022-12-11T01:38:37;0.70;99.20
7844;DHT22;3967;48.702;9.326;2022-12-11T01:41:03;0.80;99.20
7844;DHT22;3967;48.702;9.326;2022-12-11T01:43:35;0.90;99.10
7844;DHT22;3967;48.702;9.326;2022-12-11T01:46:22;0.90;98.80
7844;DHT22;3967;48.702;9.326;2022-12-11T01:48:48;1.00;98.90
7844;DHT22;3967;48.702;9.326;2022-12-11T01:51:15;1.00;98.70
7844;DHT22;3967;48.702;9.326;2022-12-11T01:53:49;1.00;98.60
7844;DHT22;3967;48.702;9.326;2022-12-11T01:56:17;0.90;98.50
7844;DHT22;3967;48.702;9.326;2022-12-11T01:58:51;1.00;98.30
7844;DHT22;3967;48.702;9.326;2022-12-11T02:01:34;1.00;98.30
7844;DHT22;3967;48.702;9.326;2022-12-11T02:04:02;1.00;98.30
7844;DHT22;3967;48.702;9.326;2022-12-11T02:06:32;1.00;98.20
7844;DHT22;3967;48.702;9.326;2022-12-11T02:08:59;0.90;98.20
7844;DHT22;3967;48.702;9.326;2022-12-11T02:11:38;0.90;98.30
7844;DHT22;3967;48.702;9.326;2022-12-11T02:14:24;1.00;98.20
7844;DHT22;3967;48.702;9.326;2022-12-11T02:25:29;0.80;98.80
7844;DHT22;3967;48.702;9.326;2022-12-11T02:28:19;0.90;98.90
7844;DHT22;3967;48.702;9.326;2022-12-11T02:31:01;1.00;98.80
7844;DHT22;3967;48.702;9.326;2022-12-11T02:33:37;0.80;98.60
7844;DHT22;3967;48.702;9.326;2022-12-11T02:36:08;0.80;98.70
7844;DHT22;3967;48.702;9.326;2022-12-11T02:38:39;0.80;99.00
7844;DHT22;3967;48.702;9.326;2022-12-11T02:41:09;0.90;99.00
7844;DHT22;3967;48.702;9.326;2022-12-11T02:43:37;0.90;98.90
7844;DHT22;3967;48.702;9.326;2022-12-11T02:46:06;1.00;99.00
7844;DHT22;3967;48.702;9.326;2022-12-11T02:48:35;1.00;98.90
7844;DHT22;3967;48.702;9.326;2022-12-11T02:51:03;0.90;99.00
7844;DHT22;3967;48.702;9.326;2022-12-11T02:53:32;0.80;99.00
7844;DHT22;3967;48.702;9.326;2022-12-11T02:56:09;0.90;99.10
7844;DHT22;3967;48.702;9.326;2022-12-11T02:58:41;1.00;99.30
7844;DHT22;3967;48.702;9.326;2022-12-11T03:01:11;0.90;99.10
7844;DHT22;3967;48.702;9.326;2022-12-11T03:03:38;1.00;99.20
7844;DHT22;3967;48.702;9.326;2022-12-11T03:06:04;1.00;99.20
7844;DHT22;3967;48.702;9.326;2022-12-11T03:08:31;1.00;99.30
7844;DHT22;3967;48.702;9.326;2022-12-11T03:11:00;1.00;99.20
7844;DHT22;3967;48.702;9.326;2022-12-11T03:13:27;1.00;99.00
7844;DHT22;3967;48.702;9.326;2022-12-11T03:18:44;1.00;99.00
7844;DHT22;3967;48.702;9.326;2022-12-11T03:21:26;0.90;98.90
7844;DHT22;3967;48.702;9.326;2022-12-11T03:24:02;0.90;98.90
7844;DHT22;3967;48.702;9.326;2022-12-11T03:26:36;0.90;98.80
7844;DHT22;3967;48.702;9.326;2022-12-11T03:29:15;0.90;98.90
7844;DHT22;3967;48.702;9.326;2022-12-11T03:34:30;1.00;98.50
7844;DHT22;3967;48.702;9.326;2022-12-11T03:36:59;1.00;98.50
7844;DHT22;3967;48.702;9.326;2022-12-11T03:39:31;1.00;98.30
7844;DHT22;3967;48.702;9.326;2022-12-11T03:42:02;1.00;98.30
7844;DHT22;3967;48.702;9.326;2022-12-11T03:44:31;1.10;98.20
7844;DHT22;3967;48.702;9.326;2022-12-11T03:47:00;1.10;98.00
7844;DHT22;3967;48.702;9.326;2022-12-11T03:49:30;1.10;97.80
7844;DHT22;3967;48.702;9.326;2022-12-11T03:52:01;1.10;97.80
7844;DHT22;3967;48.702;9.326;2022-12-11T03:54:29;1.10;97.70
7844;DHT22;3967;48.702;9.326;2022-12-11T03:56:57;1.10;97.80
7844;DHT22;3967;48.702;9.326;2022-12-11T03:59:24;1.10;97.60
7844;DHT22;3967;48.702;9.326;2022-12-11T04:01:51;1.10;97.60
7844;DHT22;3967;48.702;9.326;2022-12-11T04:04:18;1.10;97.40
7844;DHT22;3967;48.702;9.326;2022-12-11T04:06:45;1.10;97.30
7844;DHT22;3967;48.702;9.326;2022-12-11T04:09:12;1.10;97.20
7844;DHT22;3967;48.702;9.326;2022-12-11T04:11:38;1.00;97.10
7844;DHT22;3967;48.702;9.326;2022-12-11T04:14:12;1.00;97.10
7844;DHT22;3967;48.702;9.326;2022-12-11T04:16:58;1.00;97.00
7844;DHT22;3967;48.702;9.326;2022-12-11T04:19:26;1.00;97.10
7844;DHT22;3967;48.702;9.326;2022-12-11T04:22:14;1.00;97.20
7844;DHT22;3967;48.702;9.326;2022-12-11T04:25:00;1.00;97.20
7844;DHT22;3967;48.702;9.326;2022-12-11T04:27:27;1.00;97.20
7844;DHT22;3967;48.702;9.326;2022-12-11T04:30:15;1.00;97.30
7844;DHT22;3967;48.702;9.326;2022-12-11T04:32:42;1.00;97.30
7844;DHT22;3967;48.702;9.326;2022-12-11T04:35:09;0.90;97.30
7844;DHT22;3967;48.702;9.326;2022-12-11T04:37:37;0.90;97.20
7844;DHT22;3967;48.702;9.326;2022-12-11T04:40:06;0.90;97.30
7844;DHT22;3967;48.702;9.326;2022-12-11T04:42:33;0.90;97.10
7844;DHT22;3967;48.702;9.326;2022-12-11T04:45:00;0.90;97.00
7844;DHT22;3967;48.702;9.326;2022-12-11T04:47:27;0.90;97.00
7844;DHT22;3967;48.702;9.326;2022-12-11T04:49:53;0.90;97.00
7844;DHT22;3967;48.702;9.326;2022-12-11T04:52:20;0.90;96.90
7844;DHT22;3967;48.702;9.326;2022-12-11T04:54:47;0.90;97.00
7844;DHT22;3967;48.702;9.326;2022-12-11T04:57:14;0.90;97.10
7844;DHT22;3967;48.702;9.326;2022-12-11T04:59:42;0.90;97.00
7844;DHT22;3967;48.702;9.326;2022-12-11T05:02:08;0.90;97.10
7844;DHT22;3967;48.702;9.326;2022-12-11T05:04:35;0.90;97.20
7844;DHT22;3967;48.702;9.326;2022-12-11T05:07:02;0.80;97.10
7844;DHT22;3967;48.702;9.326;2022-12-11T05:09:28;0.60;97.30
7844;DHT22;3967;48.702;9.326;2022-12-11T05:11:55;0.40;97.60
7844;DHT22;3967;48.702;9.326;2022-12-11T05:14:22;0.40;97.80
7844;DHT22;3967;48.702;9.326;2022-12-11T05:16:49;0.50;98.00
7844;DHT22;3967;48.702;9.326;2022-12-11T05:19:16;0.50;98.20
7844;DHT22;3967;48.702;9.326;2022-12-11T05:21:42;0.50;98.00
7844;DHT22;3967;48.702;9.326;2022-12-11T05:24:09;0.50;97.90
7844;DHT22;3967;48.702;9.326;2022-12-11T05:26:36;0.50;97.90
7844;DHT22;3967;48.702;9.326;2022-12-11T05:29:02;0.40;97.50
7844;DHT22;3967;48.702;9.326;2022-12-11T05:31:29;0.50;97.50
7844;DHT22;3967;48.702;9.326;2022-12-11T05:33:56;0.40;96.70
7844;DHT22;3967;48.702;9.326;2022-12-11T05:36:28;0.40;97.00
7844;DHT22;3967;48.702;9.326;2022-12-11T05:38:56;0.50;97.00
7844;DHT22;3967;48.702;9.326;2022-12-11T05:41:25;0.50;96.90
7844;DHT22;3967;48.702;9.326;2022-12-11T05:43:52;0.50;96.70
7844;DHT22;3967;48.702;9.326;2022-12-11T05:46:27;0.60;96.60
7844;DHT22;3967;48.702;9.326;2022-12-11T05:48:57;0.60;96.70
7844;DHT22;3967;48.702;9.326;2022-12-11T05:51:25;0.50;96.60
7844;DHT22;3967;48.702;9.326;2022-12-11T05:53:53;0.40;97.30
7844;DHT22;3967;48.702;9.326;2022-12-11T05:56:22;0.40;98.00
7844;DHT22;3967;48.702;9.326;2022-12-11T05:58:49;0.40;97.80
7844;DHT22;3967;48.702;9.326;2022-12-11T06:01:23;0.10;96.90
7844;DHT22;3967;48.702;9.326;2022-12-11T06:03:50;-0.10;97.30
7844;DHT22;3967;48.702;9.326;2022-12-11T06:06:17;0.00;97.30
7844;DHT22;3967;48.702;9.326;2022-12-11T06:08:44;0.10;97.40
7844;DHT22;3967;48.702;9.326;2022-12-11T06:11:12;0.30;96.80
7844;DHT22;3967;48.702;9.326;2022-12-11T06:13:49;0.20;96.70
7844;DHT22;3967;48.702;9.326;2022-12-11T06:16:16;0.10;96.90
7844;DHT22;3967;48.702;9.326;2022-12-11T06:18:44;0.20;97.20
7844;DHT22;3967;48.702;9.326;2022-12-11T06:23:43;0.20;97.00
7844;DHT22;3967;48.702;9.326;2022-12-11T06:26:10;0.30;96.90
7844;DHT22;3967;48.702;9.326;2022-12-11T06:28:37;0.20;96.70
7844;DHT22;3967;48.702;9.326;2022-12-11T06:31:04;0.10;96.80
7844;DHT22;3967;48.702;9.326;2022-12-11T06:33:31;0.10;97.20
7844;DHT22;3967;48.702;9.326;2022-12-11T06:36:10;0.10;97.60
7844;DHT22;3967;48.702;9.326;2022-12-11T06:38:37;0.10;97.70
7844;DHT22;3967;48.702;9.326;2022-12-11T06:41:05;0.20;97.50
7844;DHT22;3967;48.702;9.326;2022-12-11T06:43:33;0.20;97.30
7844;DHT22;3967;48.702;9.326;2022-12-11T06:46:09;0.30;97.30
7844;DHT22;3967;48.702;9.326;2022-12-11T06:48:36;0.30;97.20
7844;DHT22;3967;48.702;9.326;2022-12-11T06:51:07;0.00;97.40
7844;DHT22;3967;48.702;9.326;2022-12-11T06:53:34;0.10;97.90
7844;DHT22;3967;48.702;9.326;2022-12-11T06:56:06;-0.10;97.60
7844;DHT22;3967;48.702;9.326;2022-12-11T06:58:35;-0.10;97.50
7844;DHT22;3967;48.702;9.326;2022-12-11T07:01:03;0.00;97.60
7844;DHT22;3967;48.702;9.326;2022-12-11T07:03:30;0.00;97.50
7844;DHT22;3967;48.702;9.326;2022-12-11T07:06:00;-0.10;97.30
7844;DHT22;3967;48.702;9.326;2022-12-11T07:08:28;0.00;97.30
7844;DHT22;3967;48.702;9.326;2022-12-11T07:11:02;0.00;97.00
7844;DHT22;3967;48.702;9.326;2022-12-11T07:13:29;0.00;96.80
7844;DHT22;3967;48.702;9.326;2022-12-11T07:15:57;0.00;96.70
7844;DHT22;3967;48.702;9.326;2022-12-11T07:18:25;0.00;96.60
7844;DHT22;3967;48.702;9.326;2022-12-11T07:20:57;0.10;96.40
7844;DHT22;3967;48.702;9.326;2022-12-11T07:23:26;0.10;96.40
7844;DHT22;3967;48.702;9.326;2022-12-11T07:25:54;0.00;96.30
7844;DHT22;3967;48.702;9.326;2022-12-11T07:28:21;0.10;96.30
7844;DHT22;3967;48.702;9.326;2022-12-11T07:30:48;0.10;96.30
7844;DHT22;3967;48.702;9.326;2022-12-11T07:33:15;0.10;96.50
7844;DHT22;3967;48.702;9.326;2022-12-11T07:35:41;0.10;96.60
7844;DHT22;3967;48.702;9.326;2022-12-11T07:38:08;0.10;96.60
7844;DHT22;3967;48.702;9.326;2022-12-11T07:40:35;0.10;96.70
7844;DHT22;3967;48.702;9.326;2022-12-11T07:43:02;0.20;96.80
7844;DHT22;3967;48.702;9.326;2022-12-11T07:45:29;0.30;96.80
7844;DHT22;3967;48.702;9.326;2022-12-11T07:47:56;0.30;96.80
7844;DHT22;3967;48.702;9.326;2022-12-11T07:50:22;0.30;96.70
7844;DHT22;3967;48.702;9.326;2022-12-11T07:52:49;0.40;96.70
7844;DHT22;3967;48.702;9.326;2022-12-11T07:55:16;0.40;96.20
7844;DHT22;3967;48.702;9.326;2022-12-11T07:57:43;0.50;96.20
7844;DHT22;3967;48.702;9.326;2022-12-11T08:00:09;0.50;96.30
7844;DHT22;3967;48.702;9.326;2022-12-11T08:02:37;0.50;96.10
7844;DHT22;3967;48.702;9.326;2022-12-11T08:05:04;0.50;95.90
7844;DHT22;3967;48.702;9.326;2022-12-11T08:07:33;0.50;96.00
7844;DHT22;3967;48.702;9.326;2022-12-11T08:10:01;0.40;95.70
7844;DHT22;3967;48.702;9.326;2022-12-11T08:12:28;0.40;95.80
7844;DHT22;3967;48.702;9.326;2022-12-11T08:14:55;0.50;95.70
7844;DHT22;3967;48.702;9.326;2022-12-11T08:17:22;0.50;95.50
7844;DHT22;3967;48.702;9.326;2022-12-11T08:19:55;0.40;95.50
7844;DHT22;3967;48.702;9.326;2022-12-11T08:22:25;0.40;95.70
7844;DHT22;3967;48.702;9.326;2022-12-11T08:24:54;0.50;95.90
7844;DHT22;3967;48.702;9.326;2022-12-11T08:27:21;0.40;95.60
7844;DHT22;3967;48.702;9.326;2022-12-11T08:29:47;0.30;95.60
7844;DHT22;3967;48.702;9.326;2022-12-11T08:32:14;0.30;95.80
7844;DHT22;3967;48.702;9.326;2022-12-11T08:34:42;0.10;96.20
7844;DHT22;3967;48.702;9.326;2022-12-11T08:37:09;0.20;96.40
7844;DHT22;3967;48.702;9.326;2022-12-11T08:39:36;0.20;96.60
7844;DHT22;3967;48.702;9.326;2022-12-11T08:42:03;0.10;96.70
7844;DHT22;3967;48.702;9.326;2022-12-11T08:44:30;-0.20;97.00
7844;DHT22;3967;48.702;9.326;2022-12-11T08:46:57;-0.20;98.00
7844;DHT22;3967;48.702;9.326;2022-12-11T08:49:23;0.10;97.80
7844;DHT22;3967;48.702;9.326;2022-12-11T08:51:55;0.10;97.00
7844;DHT22;3967;48.702;9.326;2022-12-11T08:54:22;0.10;96.70
7844;DHT22;3967;48.702;9.326;2022-12-11T08:56:48;0.00;96.50
7844;DHT22;3967;48.702;9.326;2022-12-11T08:59:23;0.20;96.70
7844;DHT22;3967;48.702;9.326;2022-12-11T09:01:51;0.30;96.30
7844;DHT22;3967;48.702;9.326;2022-12-11T09:04:18;0.20;95.90
7844;DHT22;3967;48.702;9.326;2022-12-11T09:06:46;0.00;96.20
7844;DHT22;3967;48.702;9.326;2022-12-11T09:09:14;0.00;96.40
7844;DHT22;3967;48.702;9.326;2022-12-11T09:11:46;0.40;96.60
7844;DHT22;3967;48.702;9.326;2022-12-11T09:14:13;0.50;95.80
7844;DHT22;3967;48.702;9.326;2022-12-11T09:16:41;0.40;95.10
7844;DHT22;3967;48.702;9.326;2022-12-11T09:19:11;0.30;95.00
7844;DHT22;3967;48.702;9.326;2022-12-11T09:21:40;0.40;95.20
7844;DHT22;3967;48.702;9.326;2022-12-11T09:24:08;0.30;95.60
7844;DHT22;3967;48.702;9.326;2022-12-11T09:26:35;0.20;95.60
7844;DHT22;3967;48.702;9.326;2022-12-11T09:29:04;0.40;95.70
7844;DHT22;3967;48.702;9.326;2022-12-11T09:31:34;0.30;95.00
7844;DHT22;3967;48.702;9.326;2022-12-11T09:34:06;0.30;95.80
7844;DHT22;3967;48.702;9.326;2022-12-11T09:36:37;0.40;95.80
7844;DHT22;3967;48.702;9.326;2022-12-11T09:39:05;0.60;95.70
7844;DHT22;3967;48.702;9.326;2022-12-11T09:46:46;0.50;96.70
7844;DHT22;3967;48.702;9.326;2022-12-11T09:49:22;0.50;96.70
7844;DHT22;3967;48.702;9.326;2022-12-11T09:54:32;0.80;96.70
7844;DHT22;3967;48.702;9.326;2022-12-11T09:57:36;0.70;96.50
7844;DHT22;3967;48.702;9.326;2022-12-11T10:00:16;0.80;96.60
7844;DHT22;3967;48.702;9.326;2022-12-11T10:12:01;0.60;96.90
7844;DHT22;3967;48.702;9.326;2022-12-11T10:17:01;0.70;96.60
7844;DHT22;3967;48.702;9.326;2022-12-11T10:19:30;0.60;96.80
7844;DHT22;3967;48.702;9.326;2022-12-11T10:21:59;0.80;96.70
7844;DHT22;3967;48.702;9.326;2022-12-11T10:24:42;1.00;96.30
7844;DHT22;3967;48.702;9.326;2022-12-11T10:27:36;1.10;96.10
7844;DHT22;3967;48.702;9.326;2022-12-11T10:35:57;0.80;95.50
7844;DHT22;3967;48.702;9.326;2022-12-11T10:38:30;0.90;95.70
7844;DHT22;3967;48.702;9.326;2022-12-11T10:40:58;0.70;96.30
7844;DHT22;3967;48.702;9.326;2022-12-11T10:43:40;0.90;96.40
7844;DHT22;3967;48.702;9.326;2022-12-11T10:46:34;1.00;95.80
7844;DHT22;3967;48.702;9.326;2022-12-11T10:49:02;1.00;96.80
7844;DHT22;3967;48.702;9.326;2022-12-11T10:54:03;1.20;95.70
7844;DHT22;3967;48.702;9.326;2022-12-11T10:56:35;1.10;95.50
7844;DHT22;3967;48.702;9.326;2022-12-11T10:59:03;1.10;95.70
7844;DHT22;3967;48.702;9.326;2022-12-11T11:01:31;1.10;95.80
7844;DHT22;3967;48.702;9.326;2022-12-11T11:04:02;1.20;95.60
7844;DHT22;3967;48.702;9.326;2022-12-11T11:06:30;1.30;95.70
7844;DHT22;3967;48.702;9.326;2022-12-11T11:08:59;1.10;95.30
7844;DHT22;3967;48.702;9.326;2022-12-11T11:11:34;1.10;95.60
7844;DHT22;3967;48.702;9.326;2022-12-11T11:16:36;0.90;95.80
7844;DHT22;3967;48.702;9.326;2022-12-11T11:19:04;0.90;95.90
7844;DHT22;3967;48.702;9.326;2022-12-11T11:21:33;1.30;97.80
7844;DHT22;3967;48.702;9.326;2022-12-11T11:24:00;1.20;96.20
7844;DHT22;3967;48.702;9.326;2022-12-11T11:26:30;1.30;95.90
7844;DHT22;3967;48.702;9.326;2022-12-11T11:29:27;1.20;95.40
7844;DHT22;3967;48.702;9.326;2022-12-11T11:31:54;0.90;95.00
7844;DHT22;3967;48.702;9.326;2022-12-11T11:34:21;0.90;96.00
7844;DHT22;3967;48.702;9.326;2022-12-11T11:36:56;1.20;95.70
7844;DHT22;3967;48.702;9.326;2022-12-11T11:39:39;1.20;95.60
7844;DHT22;3967;48.702;9.326;2022-12-11T11:42:18;1.30;95.60
7844;DHT22;3967;48.702;9.326;2022-12-11T11:45:19;1.40;95.40
7844;DHT22;3967;48.702;9.326;2022-12-11T11:50:37;1.60;95.30
7844;DHT22;3967;48.702;9.326;2022-12-11T11:58:38;1.60;94.50
7844;DHT22;3967;48.702;9.326;2022-12-11T12:01:16;1.60;94.60
7844;DHT22;3967;48.702;9.326;2022-12-11T12:03:44;1.40;94.10
7844;DHT22;3967;48.702;9.326;2022-12-11T12:06:26;1.50;94.40
7844;DHT22;3967;48.702;9.326;2022-12-11T12:09:24;1.70;94.10
7844;DHT22;3967;48.702;9.326;2022-12-11T12:14:58;1.80;94.20
7844;DHT22;3967;48.702;9.326;2022-12-11T12:17:38;1.90;94.40
7844;DHT22;3967;48.702;9.326;2022-12-11T12:23:12;1.90;93.90
7844;DHT22;3967;48.702;9.326;2022-12-11T12:26:13;1.80;93.60
7844;DHT22;3967;48.702;9.326;2022-12-11T12:29:01;1.80;94.00
7844;DHT22;3967;48.702;9.326;2022-12-11T12:42:30;1.90;94.10
7844;DHT22;3967;48.702;9.326;2022-12-11T12:47:44;1.90;93.80
7844;DHT22;3967;48.702;9.326;2022-12-11T12:50:32;2.00;93.40
7844;DHT22;3967;48.702;9.326;2022-12-11T12:53:04;2.00;93.20
7844;DHT22;3967;48.702;9.326;2022-12-11T12:55:32;2.10;93.10
7844;DHT22;3967;48.702;9.326;2022-12-11T12:58:02;2.00;92.70
7844;DHT22;3967;48.702;9.326;2022-12-11T13:00:37;1.90;92.20
7844;DHT22;3967;48.702;9.326;2022-12-11T13:03:24;2.00;92.30
7844;DHT22;3967;48.702;9.326;2022-12-11T13:06:05;2.10;92.40
7844;DHT22;3967;48.702;9.326;2022-12-11T13:08:46;2.20;92.40
7844;DHT22;3967;48.702;9.326;2022-12-11T13:11:16;2.10;92.40
7844;DHT22;3967;48.702;9.326;2022-12-11T13:13:46;2.20;92.80
7844;DHT22;3967;48.702;9.326;2022-12-11T13:16:26;2.10;92.50
7844;DHT22;3967;48.702;9.326;2022-12-11T13:19:00;2.10;92.20
7844;DHT22;3967;48.702;9.326;2022-12-11T13:21:33;2.10;92.20
7844;DHT22;3967;48.702;9.326;2022-12-11T13:24:26;2.00;92.30
7844;DHT22;3967;48.702;9.326;2022-12-11T13:26:54;2.00;92.10
7844;DHT22;3967;48.702;9.326;2022-12-11T13:29:32;1.90;92.10
7844;DHT22;3967;48.702;9.326;2022-12-11T13:34:41;1.90;92.60
7844;DHT22;3967;48.702;9.326;2022-12-11T13:39:48;1.90;93.10
7844;DHT22;3967;48.702;9.326;2022-12-11T13:42:28;1.90;93.40
7844;DHT22;3967;48.702;9.326;2022-12-11T13:44:56;1.90;93.60
7844;DHT22;3967;48.702;9.326;2022-12-11T13:47:23;1.90;94.20
7844;DHT22;3967;48.702;9.326;2022-12-11T13:49:58;2.00;94.70
7844;DHT22;3967;48.702;9.326;2022-12-11T13:52:25;2.00;94.70
7844;DHT22;3967;48.702;9.326;2022-12-11T13:54:54;2.00;94.80
7844;DHT22;3967;48.702;9.326;2022-12-11T13:57:24;2.00;94.70
7844;DHT22;3967;48.702;9.326;2022-12-11T13:59:57;2.00;94.60
7844;DHT22;3967;48.702;9.326;2022-12-11T14:02:32;1.90;94.30
7844;DHT22;3967;48.702;9.326;2022-12-11T14:05:05;1.90;94.40
7844;DHT22;3967;48.702;9.326;2022-12-11T14:07:36;1.90;94.50
7844;DHT22;3967;48.702;9.326;2022-12-11T14:13:03;2.00;94.90
7844;DHT22;3967;48.702;9.326;2022-12-11T14:15:32;1.90;95.00
7844;DHT22;3967;48.702;9.326;2022-12-11T14:18:01;1.80;94.90
7844;DHT22;3967;48.702;9.326;2022-12-11T14:20:31;1.80;94.70
7844;DHT22;3967;48.702;9.326;2022-12-11T14:23:19;1.60;94.90
7844;DHT22;3967;48.702;9.326;2022-12-11T14:25:57;1.70;95.20
7844;DHT22;3967;48.702;9.326;2022-12-11T14:28:25;1.80;95.40
7844;DHT22;3967;48.702;9.326;2022-12-11T14:30:57;1.90;94.90
7844;DHT22;3967;48.702;9.326;2022-12-11T14:33:30;1.90;94.70
7844;DHT22;3967;48.702;9.326;2022-12-11T14:35:57;1.90;94.00
7844;DHT22;3967;48.702;9.326;2022-12-11T14:38:43;1.80;93.60
7844;DHT22;3967;48.702;9.326;2022-12-11T14:41:18;1.80;93.70
7844;DHT22;3967;48.702;9.326;2022-12-11T14:43:53;1.80;93.50
7844;DHT22;3967;48.702;9.326;2022-12-11T14:46:28;1.80;93.70
7844;DHT22;3967;48.702;9.326;2022-12-11T14:49:10;1.90;93.80
7844;DHT22;3967;48.702;9.326;2022-12-11T14:51:41;1.80;93.70
7844;DHT22;3967;48.702;9.326;2022-12-11T14:54:16;1.80;93.80
7844;DHT22;3967;48.702;9.326;2022-12-11T14:56:46;1.70;94.00
7844;DHT22;3967;48.702;9.326;2022-12-11T14:59:22;1.60;93.60
7844;DHT22;3967;48.702;9.326;2022-12-11T15:01:59;1.60;93.40
7844;DHT22;3967;48.702;9.326;2022-12-11T15:04:29;1.70;93.30
7844;DHT22;3967;48.702;9.326;2022-12-11T15:06:57;1.70;93.70
7844;DHT22;3967;48.702;9.326;2022-12-11T15:09:45;1.60;93.80
7844;DHT22;3967;48.702;9.326;2022-12-11T15:12:14;1.40;93.80
7844;DHT22;3967;48.702;9.326;2022-12-11T15:14:56;1.40;93.90
7844;DHT22;3967;48.702;9.326;2022-12-11T15:17:25;1.20;94.20
7844;DHT22;3967;48.702;9.326;2022-12-11T15:19:55;1.20;94.90
7844;DHT22;3967;48.702;9.326;2022-12-11T15:22:30;1.20;95.40
7844;DHT22;3967;48.702;9.326;2022-12-11T15:24:57;1.30;96.10
7844;DHT22;3967;48.702;9.326;2022-12-11T15:27:29;1.20;95.80
7844;DHT22;3967;48.702;9.326;2022-12-11T15:29:57;1.10;95.90
7844;DHT22;3967;48.702;9.326;2022-12-11T15:32:24;1.20;96.10
7844;DHT22;3967;48.702;9.326;2022-12-11T15:34:56;1.30;96.20
7844;DHT22;3967;48.702;9.326;2022-12-11T15:37:32;1.40;96.10
7844;DHT22;3967;48.702;9.326;2022-12-11T15:40:03;1.40;96.00
7844;DHT22;3967;48.702;9.326;2022-12-11T15:42:37;1.40;96.00
7844;DHT22;3967;48.702;9.326;2022-12-11T15:45:10;1.40;95.70
7844;DHT22;3967;48.702;9.326;2022-12-11T15:47:41;1.30;95.70
7844;DHT22;3967;48.702;9.326;2022-12-11T15:50:22;1.30;95.70
7844;DHT22;3967;48.702;9.326;2022-12-11T15:52:51;1.30;96.00
7844;DHT22;3967;48.702;9.326;2022-12-11T15:55:19;1.10;96.10
7844;DHT22;3967;48.702;9.326;2022-12-11T15:57:55;1.10;96.30
7844;DHT22;3967;48.702;9.326;2022-12-11T16:00:23;1.10;96.30
7844;DHT22;3967;48.702;9.326;2022-12-11T16:02:54;1.10;96.40
7844;DHT22;3967;48.702;9.326;2022-12-11T16:05:21;1.00;96.50
7844;DHT22;3967;48.702;9.326;2022-12-11T16:07:49;1.00;96.60
7844;DHT22;3967;48.702;9.326;2022-12-11T16:10:18;1.00;96.60
7844;DHT22;3967;48.702;9.326;2022-12-11T16:12:46;1.10;96.70
7844;DHT22;3967;48.702;9.326;2022-12-11T16:15:16;1.20;96.70
7844;DHT22;3967;48.702;9.326;2022-12-11T16:17:49;1.20;96.10
7844;DHT22;3967;48.702;9.326;2022-12-11T16:20:16;1.20;96.00
7844;DHT22;3967;48.702;9.326;2022-12-11T16:22:43;1.20;95.90
7844;DHT22;3967;48.702;9.326;2022-12-11T16:25:10;1.20;96.10
7844;DHT22;3967;48.702;9.326;2022-12-11T16:27:37;1.20;96.20
7844;DHT22;3967;48.702;9.326;2022-12-11T16:30:04;1.10;96.00
7844;DHT22;3967;48.702;9.326;2022-12-11T16:32:31;1.10;96.00
7844;DHT22;3967;48.702;9.326;2022-12-11T16:34:58;1.20;95.90
7844;DHT22;3967;48.702;9.326;2022-12-11T16:37:27;1.20;95.70
7844;DHT22;3967;48.702;9.326;2022-12-11T16:39:54;1.20;95.80
7844;DHT22;3967;48.702;9.326;2022-12-11T16:42:21;1.10;95.60
7844;DHT22;3967;48.702;9.326;2022-12-11T16:44:48;1.10;95.70
7844;DHT22;3967;48.702;9.326;2022-12-11T16:47:14;1.00;96.00
7844;DHT22;3967;48.702;9.326;2022-12-11T16:49:41;0.90;96.20
7844;DHT22;3967;48.702;9.326;2022-12-11T16:52:11;0.80;96.50
7844;DHT22;3967;48.702;9.326;2022-12-11T16:54:44;0.80;96.60
7844;DHT22;3967;48.702;9.326;2022-12-11T16:57:11;0.90;97.30
7844;DHT22;3967;48.702;9.326;2022-12-11T16:59:38;0.90;97.00
7844;DHT22;3967;48.702;9.326;2022-12-11T17:02:05;1.00;97.00
7844;DHT22;3967;48.702;9.326;2022-12-11T17:04:32;1.10;96.80
7844;DHT22;3967;48.702;9.326;2022-12-11T17:06:59;1.00;96.40
7844;DHT22;3967;48.702;9.326;2022-12-11T17:09:26;1.10;96.40
7844;DHT22;3967;48.702;9.326;2022-12-11T17:11:53;1.10;96.30
7844;DHT22;3967;48.702;9.326;2022-12-11T17:14:20;1.00;96.40
7844;DHT22;3967;48.702;9.326;2022-12-11T17:16:46;0.90;96.40
7844;DHT22;3967;48.702;9.326;2022-12-11T17:19:14;0.90;96.60
7844;DHT22;3967;48.702;9.326;2022-12-11T17:21:41;0.90;96.70
7844;DHT22;3967;48.702;9.326;2022-12-11T17:24:18;0.80;96.80
7844;DHT22;3967;48.702;9.326;2022-12-11T17:26:45;0.80;96.80
7844;DHT22;3967;48.702;9.326;2022-12-11T17:29:12;0.80;96.90
7844;DHT22;3967;48.702;9.326;2022-12-11T17:31:39;0.80;96.80
7844;DHT22;3967;48.702;9.326;2022-12-11T17:34:07;0.80;96.50
7844;DHT22;3967;48.702;9.326;2022-12-11T17:36:33;0.80;96.60
7844;DHT22;3967;48.702;9.326;2022-12-11T17:39:00;0.80;96.60
7844;DHT22;3967;48.702;9.326;2022-12-11T17:41:27;0.80;96.40
7844;DHT22;3967;48.702;9.326;2022-12-11T17:43:54;0.60;96.50
7844;DHT22;3967;48.702;9.326;2022-12-11T17:46:21;0.70;96.70
7844;DHT22;3967;48.702;9.326;2022-12-11T17:48:48;0.70;96.60
7844;DHT22;3967;48.702;9.326;2022-12-11T17:51:17;0.70;96.50
7844;DHT22;3967;48.702;9.326;2022-12-11T17:53:53;0.70;96.80
7844;DHT22;3967;48.702;9.326;2022-12-11T17:56:23;0.70;96.30
7844;DHT22;3967;48.702;9.326;2022-12-11T17:58:50;0.70;96.50
7844;DHT22;3967;48.702;9.326;2022-12-11T18:01:18;0.80;96.50
7844;DHT22;3967;48.702;9.326;2022-12-11T18:03:45;0.70;96.40